logo
Search for airport 
image banner adimage banner adimage banner ad
image banner ad

FAROOI - Rooiberg

Located in , South Africa

ICAO - , IATA -

Data provided by Airmate  

General information

Coordinates: S24°46'22" E27°45'20"
Elevation is 3812 feet MSL.
 
View others Airports in Limpopo

Operational data

Special qualification required
Current time UTC:
Current local time:
Weather at : - ( 0 km )
METAR: KSQL 241847Z 34004KT 10SM CLR 23/14 A2993
View NOTAMs / SUP AIP / TFR affecting this airport [VIEW]
Communications frequencies: [VIEW]

Runways:

RWY identifierQFULength (ft)Width (ft)SurfaceLDA (ft)
0566°393766SAND
23246°393766SAND

Airport contact information

Address: South Africa

Satellite view of FAROOI